createdAt,value
2019-03-17T00:00:55.176Z,62.71
2019-03-17T00:03:45.141Z,62.94
2019-03-17T00:06:15.818Z,63.56
2019-03-17T00:09:06.798Z,61.45
2019-03-17T00:11:57.398Z,63.11
2019-03-17T00:14:47.432Z,62.10
2019-03-17T00:17:18.128Z,63.70
2019-03-17T00:20:08.372Z,64.20
2019-03-17T00:22:58.156Z,62.91
2019-03-17T00:25:48.032Z,61.86
2019-03-17T00:28:37.604Z,63.05
2019-03-17T00:31:08.212Z,63.70
2019-03-17T00:33:39.723Z,64.54
2019-03-17T00:36:11.832Z,64.68
2019-03-17T00:38:42.670Z,65.02
2019-03-17T00:41:13.656Z,65.18
2019-03-17T00:43:44.535Z,63.71
2019-03-17T00:46:15.504Z,65.66
2019-03-17T00:48:46.295Z,64.96
2019-03-17T00:51:36.001Z,64.64
2019-03-17T00:54:16.361Z,64.52
2019-03-17T00:57:06.222Z,65.86
2019-03-17T00:59:37.076Z,64.93
2019-03-17T01:02:26.982Z,62.95
2019-03-17T01:04:58.015Z,63.38
2019-03-17T01:07:28.908Z,64.15
2019-03-17T01:10:18.633Z,64.86
2019-03-17T01:13:08.407Z,66.29
2019-03-17T01:15:58.492Z,65.29
2019-03-17T01:18:29.247Z,64.18
2019-03-17T01:21:19.139Z,64.54
2019-03-17T01:26:39.449Z,63.49
2019-03-17T01:29:29.595Z,64.82
2019-03-17T01:32:01.538Z,64.51
2019-03-17T01:34:51.104Z,63.40
2019-03-17T01:37:41.159Z,62.86
2019-03-17T01:40:12.345Z,60.84
2019-03-17T01:43:02.744Z,61.71
2019-03-17T01:45:34.246Z,56.96
2019-03-17T01:48:06.551Z,59.19
2019-03-17T01:50:37.835Z,58.51
2019-03-17T01:53:27.776Z,59.14
2019-03-17T01:56:00.108Z,59.97
2019-03-17T02:01:31.868Z,60.78
2019-03-17T02:04:27.860Z,60.41
2019-03-17T02:07:17.876Z,61.30
2019-03-17T02:10:07.790Z,61.02
2019-03-17T02:12:39.357Z,61.92
2019-03-17T02:15:32.637Z,62.18
2019-03-17T02:18:05.250Z,63.02
2019-03-17T02:20:56.424Z,63.15
2019-03-17T02:23:28.295Z,63.76
2019-03-17T02:26:18.636Z,64.62
2019-03-17T02:29:09.504Z,63.30
2019-03-17T02:32:19.297Z,64.17
2019-03-17T02:35:10.952Z,65.85
2019-03-17T02:38:01.262Z,66.15
2019-03-17T02:40:59.952Z,65.17
2019-03-17T02:43:50.838Z,66.88
2019-03-17T02:46:22.707Z,66.86
2019-03-17T02:48:56.165Z,66.88
2019-03-17T02:51:46.301Z,66.71
2019-03-17T02:54:18.610Z,67.39
2019-03-17T02:57:08.994Z,67.47
2019-03-17T02:59:58.712Z,67.12
2019-03-17T03:02:48.955Z,66.33
2019-03-17T03:05:20.643Z,65.73
2019-03-17T03:07:53.671Z,66.30
2019-03-17T03:10:44.333Z,66.69
2019-03-17T03:13:36.074Z,66.79
2019-03-17T03:16:07.060Z,67.04
2019-03-17T03:18:56.678Z,66.93
2019-03-17T03:21:46.287Z,66.63
2019-03-17T03:24:23.906Z,66.56
2019-03-17T03:26:55.202Z,66.93
2019-03-17T03:29:46.627Z,67.90
2019-03-17T03:32:39.993Z,68.32
2019-03-17T03:35:11.146Z,68.35
2019-03-17T03:38:01.031Z,68.48
2019-03-17T03:40:50.614Z,68.98
2019-03-17T03:43:21.615Z,69.28
2019-03-17T03:46:12.456Z,69.83
2019-03-17T03:49:01.993Z,70.19
2019-03-17T03:54:50.456Z,70.06
2019-03-17T03:57:22.774Z,70.43
2019-03-17T03:59:54.139Z,69.66
2019-03-17T04:02:44.810Z,67.86
2019-03-17T04:05:34.821Z,67.42
2019-03-17T04:08:05.716Z,68.42
2019-03-17T04:11:00.538Z,68.88
2019-03-17T04:13:50.224Z,69.40
2019-03-17T04:16:40.156Z,69.08
2019-03-17T04:19:30.233Z,69.57
2019-03-17T04:22:05.028Z,69.63
2019-03-17T04:24:36.118Z,70.86
2019-03-17T04:27:07.026Z,68.46
2019-03-17T04:29:56.893Z,68.62
2019-03-17T04:32:47.420Z,68.41
2019-03-17T04:35:37.410Z,68.12
2019-03-17T04:38:26.990Z,67.77
2019-03-17T04:40:57.601Z,67.92
2019-03-17T04:43:47.191Z,67.51
2019-03-17T04:46:36.930Z,68.07
2019-03-17T04:49:26.752Z,67.47
2019-03-17T04:51:57.553Z,68.01
2019-03-17T04:54:37.910Z,67.69
2019-03-17T04:57:27.604Z,67.01
2019-03-17T05:00:17.218Z,66.92
2019-03-17T05:03:09.049Z,67.44
2019-03-17T05:05:58.887Z,63.92
2019-03-17T05:08:48.630Z,60.91
2019-03-17T05:11:38.241Z,62.39
2019-03-17T05:14:08.901Z,61.78
2019-03-17T05:16:58.516Z,61.34
2019-03-17T05:19:29.324Z,62.71
2019-03-17T05:22:19.498Z,65.26
2019-03-17T05:24:51.064Z,64.11
2019-03-17T05:27:21.791Z,64.42
2019-03-17T05:30:04.914Z,63.74
2019-03-17T05:32:35.887Z,65.14
2019-03-17T05:35:25.638Z,64.23
2019-03-17T05:38:15.771Z,65.01
2019-03-17T05:40:46.464Z,64.18
2019-03-17T05:43:36.346Z,63.22
2019-03-17T05:46:07.148Z,63.65
2019-03-17T05:48:56.707Z,65.12
2019-03-17T05:51:47.992Z,65.01
2019-03-17T05:54:38.178Z,64.83
2019-03-17T05:57:28.039Z,64.98
2019-03-17T06:03:09.054Z,64.47
2019-03-17T06:05:58.645Z,64.32
2019-03-17T06:08:48.230Z,64.23
2019-03-17T06:11:19.002Z,64.61
2019-03-17T06:13:51.238Z,64.18
2019-03-17T06:16:41.337Z,64.04
2019-03-17T06:22:33.514Z,65.89
2019-03-17T06:25:23.502Z,67.06
2019-03-17T06:28:13.037Z,65.87
2019-03-17T06:33:59.409Z,63.34
2019-03-17T06:36:30.306Z,64.83
2019-03-17T06:39:01.712Z,65.37
2019-03-17T06:41:33.663Z,66.63
2019-03-17T06:44:23.846Z,66.83
2019-03-17T06:46:54.867Z,67.77
2019-03-17T06:49:44.702Z,67.87
2019-03-17T06:52:16.113Z,68.30
2019-03-17T06:54:47.025Z,67.26
2019-03-17T06:57:18.067Z,66.59
2019-03-17T06:59:48.842Z,56.53
2019-03-17T07:02:19.533Z,52.29
2019-03-17T07:04:50.640Z,49.42
2019-03-17T07:07:22.334Z,48.87
2019-03-17T07:10:01.897Z,46.23
2019-03-17T07:12:50.981Z,44.70
2019-03-17T07:15:22.325Z,44.83
2019-03-17T07:17:54.177Z,43.22
2019-03-17T07:20:44.880Z,43.47
2019-03-17T07:23:34.841Z,42.66
2019-03-17T07:26:06.486Z,42.45
2019-03-17T07:28:39.638Z,41.73
2019-03-17T07:31:30.639Z,40.60
2019-03-17T07:34:11.268Z,39.75
2019-03-17T07:36:42.369Z,38.27
2019-03-17T07:39:13.840Z,36.27
2019-03-17T07:41:44.586Z,35.26
2019-03-17T07:44:34.628Z,34.88
2019-03-17T07:47:05.640Z,33.84
2019-03-17T07:49:55.647Z,33.23
2019-03-17T07:52:26.348Z,32.74
2019-03-17T07:54:57.122Z,31.86
2019-03-17T07:57:27.781Z,31.65
2019-03-17T08:00:17.699Z,29.97
2019-03-17T08:03:07.302Z,29.14
2019-03-17T08:05:57.212Z,28.64
2019-03-17T08:08:28.931Z,28.78
2019-03-17T08:10:59.775Z,28.41
2019-03-17T08:13:50.049Z,27.66
2019-03-17T08:16:40.056Z,27.30
2019-03-17T08:19:11.133Z,27.69
2019-03-17T08:22:00.685Z,27.49
2019-03-17T08:24:32.536Z,26.54
2019-03-17T08:27:23.344Z,26.28
2019-03-17T08:30:13.065Z,26.00
2019-03-17T08:32:44.262Z,25.23
2019-03-17T08:35:34.058Z,24.98
2019-03-17T08:38:23.797Z,24.84
2019-03-17T08:41:12.507Z,24.28
2019-03-17T08:43:54.488Z,24.86
2019-03-17T08:49:30.428Z,23.57
2019-03-17T08:52:11.873Z,23.69
2019-03-17T08:55:04.092Z,23.13
2019-03-17T08:57:35.510Z,23.99
2019-03-17T09:00:07.752Z,23.06
2019-03-17T09:02:38.660Z,22.72
2019-03-17T09:05:28.678Z,22.57
2019-03-17T09:08:00.147Z,22.61
2019-03-17T09:10:51.003Z,22.29
2019-03-17T09:13:40.608Z,22.46
2019-03-17T09:16:12.607Z,22.63
2019-03-17T09:19:03.332Z,22.60
2019-03-17T09:21:34.551Z,22.63
2019-03-17T09:24:16.541Z,23.06
2019-03-17T09:27:18.783Z,22.00
2019-03-17T09:29:51.103Z,22.70
2019-03-17T09:32:40.783Z,22.56
2019-03-17T09:35:30.419Z,22.70
2019-03-17T09:38:02.500Z,22.60
2019-03-17T09:40:36.531Z,22.97
2019-03-17T09:43:37.096Z,22.11
2019-03-17T09:46:08.333Z,21.43
2019-03-17T09:48:39.082Z,21.69
2019-03-17T09:51:10.492Z,21.52
2019-03-17T09:54:01.382Z,21.97
2019-03-17T09:56:51.450Z,22.20
2019-03-17T09:59:22.217Z,23.43
2019-03-17T10:02:12.039Z,23.34
2019-03-17T10:04:42.876Z,23.11
2019-03-17T10:07:13.627Z,23.59
2019-03-17T10:09:44.903Z,24.29
2019-03-17T10:12:16.269Z,24.46
2019-03-17T10:14:47.013Z,25.02
2019-03-17T10:17:17.920Z,24.73
2019-03-17T10:20:08.700Z,25.12
2019-03-17T10:22:40.811Z,25.01
2019-03-17T10:25:30.671Z,25.96
2019-03-17T10:28:01.479Z,25.36
2019-03-17T10:30:32.886Z,25.47
2019-03-17T10:33:24.262Z,25.74
2019-03-17T10:36:13.855Z,25.25
2019-03-17T10:42:28.951Z,26.02
2019-03-17T10:44:59.835Z,26.09
2019-03-17T10:47:50.833Z,25.18
2019-03-17T10:50:49.469Z,24.93
2019-03-17T10:53:26.316Z,24.32
2019-03-17T10:56:06.011Z,25.48
2019-03-17T10:58:56.078Z,26.50
2019-03-17T11:01:46.173Z,26.99
2019-03-17T11:04:16.985Z,26.79
2019-03-17T11:07:07.551Z,26.51
2019-03-17T11:09:39.359Z,26.87
2019-03-17T11:12:29.999Z,27.16
2019-03-17T11:18:30.719Z,27.26
2019-03-17T11:21:21.175Z,27.47
2019-03-17T11:24:11.198Z,27.37
2019-03-17T11:27:02.958Z,26.90
2019-03-17T11:29:53.102Z,26.48
2019-03-17T11:32:23.984Z,26.72
2019-03-17T11:34:56.608Z,27.33
2019-03-17T11:37:27.983Z,27.08
2019-03-17T11:39:58.764Z,27.43
2019-03-17T11:42:50.079Z,27.94
2019-03-17T11:45:21.696Z,28.31
2019-03-17T11:48:12.991Z,28.55
2019-03-17T11:51:02.720Z,28.30
2019-03-17T11:53:43.594Z,28.47
2019-03-17T11:56:15.583Z,28.71
2019-03-17T11:58:46.446Z,28.86
2019-03-17T12:01:18.102Z,29.16
2019-03-17T12:03:49.975Z,29.58
2019-03-17T12:06:21.285Z,29.56
2019-03-17T12:09:12.375Z,29.49
2019-03-17T12:12:03.034Z,29.56
2019-03-17T12:14:52.821Z,29.06
2019-03-17T12:17:23.764Z,29.43
2019-03-17T12:19:58.188Z,29.07
2019-03-17T12:22:30.056Z,29.81
2019-03-17T12:25:03.462Z,29.96
2019-03-17T12:27:55.156Z,30.36
2019-03-17T12:30:26.369Z,30.28
2019-03-17T12:32:57.995Z,31.02
2019-03-17T12:35:49.277Z,32.32
2019-03-17T12:38:20.254Z,32.86
2019-03-17T12:41:10.071Z,33.64
2019-03-17T12:44:00.094Z,33.62
2019-03-17T12:46:31.649Z,34.04
2019-03-17T12:49:22.526Z,34.20
2019-03-17T12:51:53.216Z,34.41
2019-03-17T12:54:24.318Z,35.03
2019-03-17T12:57:14.095Z,36.04
2019-03-17T12:59:45.599Z,36.73
2019-03-17T13:02:35.962Z,37.37
2019-03-17T13:05:09.501Z,37.62
2019-03-17T13:07:40.342Z,38.07
2019-03-17T13:10:16.947Z,38.58
2019-03-17T13:12:50.606Z,38.88
2019-03-17T13:15:21.682Z,39.63
2019-03-17T13:17:52.748Z,39.77
2019-03-17T13:20:44.117Z,40.60
2019-03-17T13:23:33.799Z,41.37
2019-03-17T13:26:05.789Z,41.69
2019-03-17T13:28:37.923Z,42.56
2019-03-17T13:31:12.449Z,42.79
2019-03-17T13:34:02.317Z,43.61
2019-03-17T13:36:33.191Z,44.43
2019-03-17T13:39:10.174Z,46.84
2019-03-17T13:42:01.234Z,52.75
2019-03-17T13:44:32.419Z,57.26
2019-03-17T13:47:03.272Z,62.51
2019-03-17T13:49:53.062Z,64.84
2019-03-17T13:52:23.976Z,70.16
2019-03-17T13:55:15.569Z,72.94
2019-03-17T13:57:48.665Z,70.57
2019-03-17T14:00:21.650Z,76.11
2019-03-17T14:02:52.728Z,78.69
2019-03-17T14:08:16.051Z,78.86
2019-03-17T14:10:47.323Z,80.71
2019-03-17T14:13:18.830Z,78.55
2019-03-17T14:16:08.632Z,78.46
2019-03-17T14:18:58.848Z,79.19
2019-03-17T14:21:48.781Z,79.47
2019-03-17T14:24:19.490Z,78.29
2019-03-17T14:26:54.845Z,78.53
2019-03-17T14:29:27.555Z,77.78
2019-03-17T14:31:59.377Z,80.02
2019-03-17T14:34:50.636Z,80.66
2019-03-17T14:37:40.749Z,79.97
2019-03-17T14:40:30.716Z,79.27
2019-03-17T14:43:20.423Z,78.68
2019-03-17T14:46:11.598Z,79.75
2019-03-17T14:48:42.517Z,79.84
2019-03-17T14:51:32.257Z,80.93
2019-03-17T14:54:22.000Z,79.80
2019-03-17T14:57:12.134Z,80.06
2019-03-17T15:00:01.685Z,81.40
2019-03-17T15:02:32.794Z,81.58
2019-03-17T15:05:03.543Z,82.72
2019-03-17T15:07:53.552Z,81.04
2019-03-17T15:10:43.180Z,80.03
2019-03-17T15:16:02.030Z,79.31
2019-03-17T15:21:06.418Z,79.53
2019-03-17T15:23:56.078Z,78.90
2019-03-17T15:26:27.146Z,77.90
2019-03-17T15:29:17.069Z,78.01
2019-03-17T15:31:59.480Z,76.31
2019-03-17T15:34:42.208Z,76.16
2019-03-17T15:37:16.577Z,75.47
2019-03-17T15:39:47.490Z,74.28
2019-03-17T15:42:37.539Z,73.00
2019-03-17T15:45:11.135Z,74.15
2019-03-17T15:48:03.963Z,73.06
2019-03-17T15:50:33.964Z,73.50
2019-03-17T15:53:04.923Z,72.21
2019-03-17T15:55:37.624Z,72.69
2019-03-17T15:58:08.413Z,71.16
2019-03-17T16:00:59.374Z,71.21
2019-03-17T16:03:30.437Z,71.75
2019-03-17T16:06:20.420Z,71.18
2019-03-17T16:08:51.471Z,71.12
2019-03-17T16:11:42.091Z,70.39
2019-03-17T16:14:14.108Z,69.97
2019-03-17T16:16:45.231Z,69.99
2019-03-17T16:19:35.270Z,70.19
2019-03-17T16:22:24.953Z,69.13
2019-03-17T16:25:06.990Z,69.34
2019-03-17T16:27:48.173Z,69.39
2019-03-17T16:30:20.967Z,69.52
2019-03-17T16:33:11.558Z,69.19
2019-03-17T16:35:46.283Z,69.33
2019-03-17T16:38:35.706Z,69.02
2019-03-17T16:44:08.615Z,69.45
2019-03-17T16:46:59.265Z,68.79
2019-03-17T16:49:39.594Z,69.24
2019-03-17T16:52:29.572Z,69.61
2019-03-17T16:55:00.779Z,69.68
2019-03-17T16:57:36.301Z,69.78
2019-03-17T17:00:26.061Z,70.06
2019-03-17T17:02:57.049Z,72.13
2019-03-17T17:05:28.022Z,71.87
2019-03-17T17:08:00.322Z,71.26
2019-03-17T17:10:31.380Z,70.71
2019-03-17T17:13:03.186Z,70.71
2019-03-17T17:15:52.901Z,71.60
2019-03-17T17:18:42.969Z,70.92
2019-03-17T17:21:34.564Z,70.80
2019-03-17T17:24:05.546Z,71.98
2019-03-17T17:26:55.243Z,73.28
2019-03-17T17:29:26.000Z,74.37
2019-03-17T17:32:16.300Z,76.19
2019-03-17T17:34:57.039Z,78.70
2019-03-17T17:37:39.237Z,79.60
2019-03-17T17:40:31.825Z,80.32
2019-03-17T17:43:03.535Z,80.93
2019-03-17T17:45:55.238Z,81.20
2019-03-17T17:48:26.279Z,81.63
2019-03-17T17:51:17.002Z,81.40
2019-03-17T17:53:49.303Z,80.97
2019-03-17T17:56:24.069Z,81.70
2019-03-17T17:59:09.499Z,80.57
2019-03-17T18:01:41.483Z,81.65
2019-03-17T18:04:13.299Z,82.77
2019-03-17T18:07:03.559Z,79.75
2019-03-17T18:09:53.674Z,78.62
2019-03-17T18:12:24.495Z,78.34
2019-03-17T18:14:58.431Z,77.47
2019-03-17T18:17:51.211Z,77.56
2019-03-17T18:20:31.539Z,76.09
2019-03-17T18:23:02.920Z,75.31
2019-03-17T18:25:33.893Z,76.19
2019-03-17T18:28:07.569Z,75.95
2019-03-17T18:30:39.317Z,75.06
2019-03-17T18:33:29.335Z,74.26
2019-03-17T18:36:01.371Z,75.30
2019-03-17T18:38:33.498Z,76.30
2019-03-17T18:41:06.417Z,75.78
2019-03-17T18:43:41.899Z,75.88
2019-03-17T18:46:13.407Z,75.13
2019-03-17T18:49:03.867Z,74.71
2019-03-17T18:51:34.791Z,73.73
2019-03-17T18:54:06.046Z,73.11
2019-03-17T18:56:37.273Z,74.60
2019-03-17T18:59:27.058Z,73.49
2019-03-17T19:01:57.783Z,73.19
2019-03-17T19:07:46.031Z,72.28
2019-03-17T19:10:41.261Z,72.18
2019-03-17T19:13:34.911Z,72.06
2019-03-17T19:16:43.693Z,70.92
2019-03-17T19:19:33.667Z,71.70
2019-03-17T19:22:23.818Z,71.06
2019-03-17T19:24:54.701Z,69.01
2019-03-17T19:27:28.008Z,68.67
2019-03-17T19:30:18.838Z,69.09
2019-03-17T19:35:59.907Z,68.64
2019-03-17T19:38:30.999Z,68.61
2019-03-17T19:41:20.900Z,68.35
2019-03-17T19:44:15.731Z,68.68
2019-03-17T19:46:51.086Z,68.48
2019-03-17T19:52:41.912Z,67.01
2019-03-17T19:55:13.374Z,66.92
2019-03-17T19:57:44.820Z,67.19
2019-03-17T20:00:37.801Z,68.03
2019-03-17T20:03:08.802Z,68.10
2019-03-17T20:05:40.845Z,67.73
2019-03-17T20:08:31.681Z,66.88
2019-03-17T20:11:03.040Z,67.12
2019-03-17T20:13:35.913Z,67.55
2019-03-17T20:16:26.242Z,67.46
2019-03-17T20:19:00.552Z,67.99
2019-03-17T20:21:51.242Z,67.98
2019-03-17T20:24:22.175Z,67.85
2019-03-17T20:26:55.008Z,68.47
2019-03-17T20:29:28.796Z,69.13
2019-03-17T20:31:59.376Z,68.72
2019-03-17T20:34:31.031Z,69.08
2019-03-17T20:37:02.138Z,68.85
2019-03-17T20:39:45.320Z,69.81
2019-03-17T20:42:35.677Z,69.67
2019-03-17T20:45:25.605Z,69.29
2019-03-17T20:48:15.881Z,69.79
2019-03-17T20:50:46.915Z,69.67
2019-03-17T20:53:36.915Z,68.98
2019-03-17T20:56:08.238Z,68.92
2019-03-17T20:58:39.618Z,69.55
2019-03-17T21:01:10.606Z,69.14
2019-03-17T21:03:42.158Z,68.63
2019-03-17T21:06:13.069Z,67.73
2019-03-17T21:09:03.062Z,68.16
2019-03-17T21:11:33.706Z,67.94
2019-03-17T21:14:05.303Z,66.57
2019-03-17T21:16:55.232Z,66.17
2019-03-17T21:19:44.975Z,65.52
2019-03-17T21:22:15.863Z,64.59
2019-03-17T21:25:06.020Z,64.50
2019-03-17T21:27:36.966Z,63.75
2019-03-17T21:30:26.937Z,63.63
2019-03-17T21:32:57.690Z,63.78
2019-03-17T21:35:28.552Z,64.41
2019-03-17T21:38:00.671Z,64.92
2019-03-17T21:40:31.422Z,64.31
2019-03-17T21:43:02.058Z,65.50
2019-03-17T21:45:52.052Z,64.83
2019-03-17T21:48:23.216Z,65.88
2019-03-17T21:51:13.206Z,65.76
2019-03-17T21:53:43.992Z,65.91
2019-03-17T21:56:33.998Z,66.90
2019-03-17T21:59:04.938Z,67.01
2019-03-17T22:01:35.600Z,67.98
2019-03-17T22:04:07.712Z,67.03
2019-03-17T22:06:57.370Z,68.70
2019-03-17T22:09:48.569Z,69.38
2019-03-17T22:12:19.260Z,70.91
2019-03-17T22:15:09.901Z,69.60
2019-03-17T22:18:01.580Z,69.96
2019-03-17T22:20:42.053Z,69.04
2019-03-17T22:23:13.053Z,69.95
2019-03-17T22:28:39.227Z,68.83
2019-03-17T22:31:10.059Z,69.51
2019-03-17T22:33:41.018Z,67.83
2019-03-17T22:36:11.698Z,67.94
2019-03-17T22:39:01.431Z,68.23
2019-03-17T22:41:51.020Z,67.49
2019-03-17T22:44:24.637Z,68.86
2019-03-17T22:47:13.712Z,70.88
2019-03-17T22:49:44.462Z,71.37
2019-03-17T22:52:34.174Z,70.47
2019-03-17T22:55:23.959Z,70.11
2019-03-17T22:57:54.669Z,70.03
2019-03-17T23:00:38.483Z,70.55
2019-03-17T23:03:09.375Z,66.68
2019-03-17T23:05:59.305Z,66.70
2019-03-17T23:08:48.830Z,66.45
2019-03-17T23:11:39.069Z,68.58
2019-03-17T23:14:10.067Z,65.88
2019-03-17T23:16:40.866Z,68.12
2019-03-17T23:19:31.215Z,68.88
2019-03-17T23:22:04.943Z,67.72
2019-03-17T23:24:56.738Z,69.45
2019-03-17T23:30:26.125Z,68.46
2019-03-17T23:33:08.667Z,69.85
2019-03-17T23:35:40.266Z,68.78
2019-03-17T23:38:11.625Z,69.85
2019-03-17T23:41:01.976Z,70.86
2019-03-17T23:43:52.280Z,71.36
2019-03-17T23:46:44.553Z,70.45
2019-03-17T23:49:36.366Z,71.57
2019-03-17T23:52:25.911Z,71.87
2019-03-17T23:55:16.887Z,73.25
2019-03-17T23:58:07.046Z,74.28
